sensor_id;sensor_type;location;lat;lon;timestamp;P1;durP1;ratioP1;P2;durP2;ratioP2
11398;SDS011;5755;48.116;11.608;2022-09-25T00:03:16;10.60;;;9.50;;
11398;SDS011;5755;48.116;11.608;2022-09-25T00:05:44;10.18;;;9.18;;
11398;SDS011;5755;48.116;11.608;2022-09-25T00:08:12;9.48;;;8.57;;
11398;SDS011;5755;48.116;11.608;2022-09-25T00:10:42;9.93;;;9.00;;
11398;SDS011;5755;48.116;11.608;2022-09-25T00:22:49;9.93;;;8.13;;
11398;SDS011;5755;48.116;11.608;2022-09-25T00:25:18;9.80;;;8.90;;
11398;SDS011;5755;48.116;11.608;2022-09-25T00:27:46;11.38;;;9.68;;
11398;SDS011;5755;48.116;11.608;2022-09-25T00:36:36;9.35;;;8.43;;
11398;SDS011;5755;48.116;11.608;2022-09-25T00:39:13;9.43;;;8.50;;
11398;SDS011;5755;48.116;11.608;2022-09-25T00:41:54;9.35;;;8.45;;
11398;SDS011;5755;48.116;11.608;2022-09-25T00:53:19;11.95;;;7.70;;
11398;SDS011;5755;48.116;11.608;2022-09-25T00:55:55;13.93;;;9.73;;
11398;SDS011;5755;48.116;11.608;2022-09-25T00:58:25;8.95;;;8.05;;
11398;SDS011;5755;48.116;11.608;2022-09-25T01:01:00;8.30;;;7.50;;
11398;SDS011;5755;48.116;11.608;2022-09-25T01:06:14;8.40;;;7.55;;
11398;SDS011;5755;48.116;11.608;2022-09-25T01:08:54;10.20;;;8.57;;
11398;SDS011;5755;48.116;11.608;2022-09-25T01:14:18;9.10;;;7.75;;
11398;SDS011;5755;48.116;11.608;2022-09-25T01:19:49;9.25;;;8.32;;
11398;SDS011;5755;48.116;11.608;2022-09-25T01:22:26;11.60;;;9.80;;
11398;SDS011;5755;48.116;11.608;2022-09-25T01:28:12;10.45;;;7.93;;
11398;SDS011;5755;48.116;11.608;2022-09-25T01:31:01;8.35;;;7.45;;
11398;SDS011;5755;48.116;11.608;2022-09-25T01:33:49;16.30;;;13.00;;
11398;SDS011;5755;48.116;11.608;2022-09-25T01:36:22;8.60;;;7.68;;
11398;SDS011;5755;48.116;11.608;2022-09-25T01:39:13;11.38;;;8.25;;
11398;SDS011;5755;48.116;11.608;2022-09-25T01:41:47;8.55;;;7.65;;
11398;SDS011;5755;48.116;11.608;2022-09-25T01:44:18;8.65;;;7.70;;
11398;SDS011;5755;48.116;11.608;2022-09-25T01:47:03;7.93;;;7.15;;
11398;SDS011;5755;48.116;11.608;2022-09-25T01:49:37;8.48;;;6.93;;
11398;SDS011;5755;48.116;11.608;2022-09-25T01:52:12;9.75;;;7.13;;
11398;SDS011;5755;48.116;11.608;2022-09-25T01:54:44;7.93;;;7.13;;
11398;SDS011;5755;48.116;11.608;2022-09-25T02:00:05;7.20;;;6.50;;
11398;SDS011;5755;48.116;11.608;2022-09-25T02:08:37;6.68;;;6.07;;
11398;SDS011;5755;48.116;11.608;2022-09-25T02:14:12;6.57;;;5.97;;
11398;SDS011;5755;48.116;11.608;2022-09-25T02:16:45;5.90;;;5.40;;
11398;SDS011;5755;48.116;11.608;2022-09-25T02:19:16;6.03;;;5.47;;
11398;SDS011;5755;48.116;11.608;2022-09-25T02:22:09;6.22;;;5.63;;
11398;SDS011;5755;48.116;11.608;2022-09-25T02:27:32;6.15;;;5.63;;
11398;SDS011;5755;48.116;11.608;2022-09-25T02:30:06;8.98;;;5.57;;
11398;SDS011;5755;48.116;11.608;2022-09-25T02:32:48;5.93;;;5.32;;
11398;SDS011;5755;48.116;11.608;2022-09-25T02:38:04;5.97;;;5.40;;
11398;SDS011;5755;48.116;11.608;2022-09-25T02:43:37;6.75;;;6.15;;
11398;SDS011;5755;48.116;11.608;2022-09-25T02:46:12;5.95;;;5.45;;
11398;SDS011;5755;48.116;11.608;2022-09-25T02:48:55;6.20;;;5.60;;
11398;SDS011;5755;48.116;11.608;2022-09-25T02:51:26;5.95;;;5.45;;
11398;SDS011;5755;48.116;11.608;2022-09-25T02:54:08;6.30;;;5.70;;
11398;SDS011;5755;48.116;11.608;2022-09-25T02:56:49;5.25;;;4.75;;
11398;SDS011;5755;48.116;11.608;2022-09-25T02:59:31;6.13;;;5.50;;
11398;SDS011;5755;48.116;11.608;2022-09-25T03:02:06;5.47;;;4.97;;
11398;SDS011;5755;48.116;11.608;2022-09-25T03:04:35;5.38;;;4.88;;
11398;SDS011;5755;48.116;11.608;2022-09-25T03:07:04;5.68;;;5.15;;
11398;SDS011;5755;48.116;11.608;2022-09-25T03:09:49;5.82;;;5.22;;
11398;SDS011;5755;48.116;11.608;2022-09-25T03:15:36;5.60;;;5.10;;
11398;SDS011;5755;48.116;11.608;2022-09-25T03:18:18;5.40;;;4.90;;
11398;SDS011;5755;48.116;11.608;2022-09-25T03:20:48;5.80;;;5.20;;
11398;SDS011;5755;48.116;11.608;2022-09-25T03:23:18;5.10;;;4.60;;
11398;SDS011;5755;48.116;11.608;2022-09-25T03:25:47;5.65;;;5.15;;
11398;SDS011;5755;48.116;11.608;2022-09-25T03:28:24;4.72;;;4.32;;
11398;SDS011;5755;48.116;11.608;2022-09-25T03:30:54;4.78;;;4.38;;
11398;SDS011;5755;48.116;11.608;2022-09-25T03:33:24;5.30;;;4.80;;
11398;SDS011;5755;48.116;11.608;2022-09-25T03:38:54;6.03;;;4.43;;
11398;SDS011;5755;48.116;11.608;2022-09-25T03:41:32;4.85;;;4.45;;
11398;SDS011;5755;48.116;11.608;2022-09-25T03:44:02;4.95;;;4.35;;
11398;SDS011;5755;48.116;11.608;2022-09-25T03:46:42;5.18;;;4.68;;
11398;SDS011;5755;48.116;11.608;2022-09-25T03:49:09;5.05;;;4.60;;
11398;SDS011;5755;48.116;11.608;2022-09-25T03:55:12;6.07;;;3.92;;
11398;SDS011;5755;48.116;11.608;2022-09-25T03:57:40;4.40;;;4.00;;
11398;SDS011;5755;48.116;11.608;2022-09-25T04:00:07;4.28;;;3.65;;
11398;SDS011;5755;48.116;11.608;2022-09-25T04:02:36;4.05;;;3.75;;
11398;SDS011;5755;48.116;11.608;2022-09-25T04:05:06;5.70;;;4.00;;
11398;SDS011;5755;48.116;11.608;2022-09-25T04:07:33;19.05;;;15.82;;
11398;SDS011;5755;48.116;11.608;2022-09-25T04:10:06;8.07;;;6.75;;
11398;SDS011;5755;48.116;11.608;2022-09-25T04:15:24;5.90;;;5.30;;
11398;SDS011;5755;48.116;11.608;2022-09-25T04:18:06;4.85;;;4.40;;
11398;SDS011;5755;48.116;11.608;2022-09-25T04:23:30;4.47;;;4.07;;
11398;SDS011;5755;48.116;11.608;2022-09-25T04:26:00;6.03;;;5.43;;
11398;SDS011;5755;48.116;11.608;2022-09-25T04:28:31;4.40;;;4.00;;
11398;SDS011;5755;48.116;11.608;2022-09-25T04:31:00;4.15;;;3.75;;
11398;SDS011;5755;48.116;11.608;2022-09-25T04:33:30;4.70;;;4.30;;
11398;SDS011;5755;48.116;11.608;2022-09-25T04:36:24;5.88;;;4.78;;
11398;SDS011;5755;48.116;11.608;2022-09-25T04:39:00;4.68;;;4.28;;
11398;SDS011;5755;48.116;11.608;2022-09-25T04:41:36;4.97;;;4.47;;
11398;SDS011;5755;48.116;11.608;2022-09-25T04:44:07;4.70;;;4.30;;
11398;SDS011;5755;48.116;11.608;2022-09-25T04:49:48;4.22;;;3.88;;
11398;SDS011;5755;48.116;11.608;2022-09-25T04:52:18;5.20;;;4.40;;
11398;SDS011;5755;48.116;11.608;2022-09-25T05:01:02;5.00;;;4.50;;
11398;SDS011;5755;48.116;11.608;2022-09-25T05:03:36;4.47;;;4.07;;
11398;SDS011;5755;48.116;11.608;2022-09-25T05:09:24;5.82;;;4.22;;
11398;SDS011;5755;48.116;11.608;2022-09-25T05:11:51;5.53;;;5.03;;
11398;SDS011;5755;48.116;11.608;2022-09-25T05:14:24;5.55;;;5.05;;
11398;SDS011;5755;48.116;11.608;2022-09-25T05:16:52;4.20;;;3.90;;
11398;SDS011;5755;48.116;11.608;2022-09-25T05:19:24;4.38;;;3.92;;
11398;SDS011;5755;48.116;11.608;2022-09-25T05:22:06;4.60;;;4.20;;
11398;SDS011;5755;48.116;11.608;2022-09-25T05:24:33;4.00;;;3.65;;
11398;SDS011;5755;48.116;11.608;2022-09-25T05:30:24;5.32;;;3.90;;
11398;SDS011;5755;48.116;11.608;2022-09-25T05:33:07;5.00;;;3.88;;
11398;SDS011;5755;48.116;11.608;2022-09-25T05:35:36;4.53;;;4.13;;
11398;SDS011;5755;48.116;11.608;2022-09-25T05:38:03;5.35;;;4.85;;
11398;SDS011;5755;48.116;11.608;2022-09-25T05:40:42;4.95;;;4.30;;
11398;SDS011;5755;48.116;11.608;2022-09-25T05:43:12;4.55;;;4.00;;
11398;SDS011;5755;48.116;11.608;2022-09-25T05:45:42;5.15;;;4.65;;
11398;SDS011;5755;48.116;11.608;2022-09-25T05:54:19;5.80;;;5.20;;
11398;SDS011;5755;48.116;11.608;2022-09-25T05:56:54;5.40;;;4.15;;
11398;SDS011;5755;48.116;11.608;2022-09-25T05:59:24;4.78;;;4.38;;
11398;SDS011;5755;48.116;11.608;2022-09-25T06:01:54;4.90;;;4.20;;
11398;SDS011;5755;48.116;11.608;2022-09-25T06:04:31;4.60;;;4.20;;
11398;SDS011;5755;48.116;11.608;2022-09-25T06:07:00;6.43;;;4.60;;
11398;SDS011;5755;48.116;11.608;2022-09-25T06:09:27;8.82;;;7.65;;
11398;SDS011;5755;48.116;11.608;2022-09-25T06:11:54;6.15;;;4.03;;
11398;SDS011;5755;48.116;11.608;2022-09-25T06:17:12;4.47;;;3.75;;
11398;SDS011;5755;48.116;11.608;2022-09-25T06:22:56;4.30;;;3.97;;
11398;SDS011;5755;48.116;11.608;2022-09-25T06:25:24;4.50;;;4.03;;
11398;SDS011;5755;48.116;11.608;2022-09-25T06:31:30;5.03;;;4.15;;
11398;SDS011;5755;48.116;11.608;2022-09-25T06:39:46;4.75;;;4.35;;
11398;SDS011;5755;48.116;11.608;2022-09-25T06:48:42;5.28;;;4.78;;
11398;SDS011;5755;48.116;11.608;2022-09-25T06:51:24;4.90;;;4.43;;
11398;SDS011;5755;48.116;11.608;2022-09-25T06:57:18;5.53;;;4.20;;
11398;SDS011;5755;48.116;11.608;2022-09-25T06:59:51;4.60;;;4.20;;
11398;SDS011;5755;48.116;11.608;2022-09-25T07:02:20;5.15;;;4.10;;
11398;SDS011;5755;48.116;11.608;2022-09-25T07:08:06;4.68;;;4.28;;
11398;SDS011;5755;48.116;11.608;2022-09-25T07:13:44;5.05;;;4.43;;
11398;SDS011;5755;48.116;11.608;2022-09-25T07:16:13;4.30;;;3.90;;
11398;SDS011;5755;48.116;11.608;2022-09-25T07:18:42;4.60;;;4.20;;
11398;SDS011;5755;48.116;11.608;2022-09-25T07:21:18;4.60;;;4.20;;
11398;SDS011;5755;48.116;11.608;2022-09-25T07:23:48;4.75;;;4.35;;
11398;SDS011;5755;48.116;11.608;2022-09-25T07:26:19;5.28;;;4.38;;
11398;SDS011;5755;48.116;11.608;2022-09-25T07:28:51;4.20;;;3.90;;
11398;SDS011;5755;48.116;11.608;2022-09-25T07:31:20;4.40;;;4.07;;
11398;SDS011;5755;48.116;11.608;2022-09-25T07:33:54;4.47;;;4.07;;
11398;SDS011;5755;48.116;11.608;2022-09-25T07:42:48;4.93;;;4.50;;
11398;SDS011;5755;48.116;11.608;2022-09-25T07:45:16;5.45;;;4.63;;
11398;SDS011;5755;48.116;11.608;2022-09-25T07:47:48;5.18;;;4.30;;
11398;SDS011;5755;48.116;11.608;2022-09-25T07:50:15;4.15;;;3.80;;
11398;SDS011;5755;48.116;11.608;2022-09-25T07:52:48;4.18;;;3.70;;
11398;SDS011;5755;48.116;11.608;2022-09-25T07:55:30;5.38;;;4.07;;
11398;SDS011;5755;48.116;11.608;2022-09-25T07:58:00;6.18;;;4.05;;
11398;SDS011;5755;48.116;11.608;2022-09-25T08:06:18;5.10;;;4.70;;
11398;SDS011;5755;48.116;11.608;2022-09-25T08:08:48;4.97;;;4.53;;
11398;SDS011;5755;48.116;11.608;2022-09-25T08:11:15;6.15;;;5.55;;
11398;SDS011;5755;48.116;11.608;2022-09-25T08:13:48;6.03;;;5.43;;
11398;SDS011;5755;48.116;11.608;2022-09-25T08:16:31;5.78;;;5.28;;
11398;SDS011;5755;48.116;11.608;2022-09-25T08:22:24;7.68;;;5.80;;
11398;SDS011;5755;48.116;11.608;2022-09-25T08:24:51;8.43;;;6.55;;
11398;SDS011;5755;48.116;11.608;2022-09-25T08:27:24;8.05;;;6.82;;
11398;SDS011;5755;48.116;11.608;2022-09-25T08:32:56;7.68;;;6.97;;
11398;SDS011;5755;48.116;11.608;2022-09-25T08:35:36;7.55;;;6.85;;
11398;SDS011;5755;48.116;11.608;2022-09-25T08:38:12;7.25;;;6.55;;
11398;SDS011;5755;48.116;11.608;2022-09-25T08:40:41;8.00;;;7.30;;
11398;SDS011;5755;48.116;11.608;2022-09-25T08:43:19;8.45;;;7.65;;
11398;SDS011;5755;48.116;11.608;2022-09-25T08:46:00;9.02;;;8.23;;
11398;SDS011;5755;48.116;11.608;2022-09-25T08:48:55;8.75;;;7.95;;
11398;SDS011;5755;48.116;11.608;2022-09-25T08:51:31;11.13;;;8.70;;
11398;SDS011;5755;48.116;11.608;2022-09-25T08:54:20;13.70;;;12.35;;
11398;SDS011;5755;48.116;11.608;2022-09-25T08:59:37;11.35;;;10.25;;
11398;SDS011;5755;48.116;11.608;2022-09-25T09:02:13;10.27;;;9.27;;
11398;SDS011;5755;48.116;11.608;2022-09-25T09:04:46;11.48;;;10.27;;
11398;SDS011;5755;48.116;11.608;2022-09-25T09:07:20;11.45;;;10.30;;
11398;SDS011;5755;48.116;11.608;2022-09-25T09:09:51;11.32;;;10.15;;
11398;SDS011;5755;48.116;11.608;2022-09-25T09:12:26;10.65;;;9.60;;
11398;SDS011;5755;48.116;11.608;2022-09-25T09:15:04;11.18;;;10.18;;
11398;SDS011;5755;48.116;11.608;2022-09-25T09:17:48;11.85;;;10.65;;
11398;SDS011;5755;48.116;11.608;2022-09-25T09:20:21;11.18;;;10.07;;
11398;SDS011;5755;48.116;11.608;2022-09-25T09:22:53;11.00;;;9.90;;
11398;SDS011;5755;48.116;11.608;2022-09-25T09:25:26;11.05;;;9.95;;
11398;SDS011;5755;48.116;11.608;2022-09-25T09:28:05;11.80;;;10.60;;
11398;SDS011;5755;48.116;11.608;2022-09-25T09:30:47;11.98;;;10.48;;
11398;SDS011;5755;48.116;11.608;2022-09-25T09:33:36;12.20;;;10.88;;
11398;SDS011;5755;48.116;11.608;2022-09-25T09:36:18;12.85;;;10.82;;
11398;SDS011;5755;48.116;11.608;2022-09-25T09:38:56;12.23;;;10.93;;
11398;SDS011;5755;48.116;11.608;2022-09-25T09:41:41;12.70;;;11.50;;
11398;SDS011;5755;48.116;11.608;2022-09-25T09:44:27;12.45;;;11.15;;
11398;SDS011;5755;48.116;11.608;2022-09-25T09:47:05;13.15;;;11.60;;
11398;SDS011;5755;48.116;11.608;2022-09-25T09:49:45;12.02;;;10.82;;
11398;SDS011;5755;48.116;11.608;2022-09-25T09:52:20;12.35;;;11.23;;
11398;SDS011;5755;48.116;11.608;2022-09-25T09:54:51;11.70;;;10.50;;
11398;SDS011;5755;48.116;11.608;2022-09-25T09:57:22;12.88;;;10.95;;
11398;SDS011;5755;48.116;11.608;2022-09-25T09:59:55;12.43;;;10.45;;
11398;SDS011;5755;48.116;11.608;2022-09-25T10:08:15;11.45;;;10.25;;
11398;SDS011;5755;48.116;11.608;2022-09-25T10:10:44;10.98;;;9.88;;
11398;SDS011;5755;48.116;11.608;2022-09-25T10:13:14;10.73;;;9.68;;
11398;SDS011;5755;48.116;11.608;2022-09-25T10:15:49;11.32;;;9.63;;
11398;SDS011;5755;48.116;11.608;2022-09-25T10:21:13;13.00;;;11.60;;
11398;SDS011;5755;48.116;11.608;2022-09-25T10:23:50;11.15;;;9.80;;
11398;SDS011;5755;48.116;11.608;2022-09-25T10:26:25;9.10;;;8.27;;
11398;SDS011;5755;48.116;11.608;2022-09-25T10:28:54;10.73;;;9.70;;
11398;SDS011;5755;48.116;11.608;2022-09-25T10:31:31;10.35;;;9.25;;
11398;SDS011;5755;48.116;11.608;2022-09-25T10:34:15;10.50;;;9.40;;
11398;SDS011;5755;48.116;11.608;2022-09-25T10:36:49;10.98;;;9.88;;
11398;SDS011;5755;48.116;11.608;2022-09-25T10:42:34;10.13;;;9.13;;
11398;SDS011;5755;48.116;11.608;2022-09-25T10:48:21;8.35;;;7.65;;
11398;SDS011;5755;48.116;11.608;2022-09-25T10:51:12;8.88;;;8.00;;
11398;SDS011;5755;48.116;11.608;2022-09-25T10:56:49;8.80;;;7.97;;
11398;SDS011;5755;48.116;11.608;2022-09-25T10:59:19;9.13;;;8.10;;
11398;SDS011;5755;48.116;11.608;2022-09-25T11:01:48;8.18;;;7.38;;
11398;SDS011;5755;48.116;11.608;2022-09-25T11:04:20;8.25;;;7.45;;
11398;SDS011;5755;48.116;11.608;2022-09-25T11:06:49;8.45;;;7.65;;
11398;SDS011;5755;48.116;11.608;2022-09-25T11:12:20;7.80;;;7.00;;
11398;SDS011;5755;48.116;11.608;2022-09-25T11:15:06;7.18;;;6.57;;
11398;SDS011;5755;48.116;11.608;2022-09-25T11:17:43;7.45;;;6.75;;
11398;SDS011;5755;48.116;11.608;2022-09-25T11:20:19;7.45;;;6.75;;
11398;SDS011;5755;48.116;11.608;2022-09-25T11:25:51;7.18;;;6.47;;
11398;SDS011;5755;48.116;11.608;2022-09-25T11:28:27;6.90;;;6.25;;
11398;SDS011;5755;48.116;11.608;2022-09-25T11:31:09;6.50;;;5.93;;
11398;SDS011;5755;48.116;11.608;2022-09-25T11:33:43;6.55;;;5.95;;
11398;SDS011;5755;48.116;11.608;2022-09-25T11:39:32;7.13;;;6.43;;
11398;SDS011;5755;48.116;11.608;2022-09-25T11:42:24;8.65;;;6.97;;
11398;SDS011;5755;48.116;11.608;2022-09-25T11:45:16;6.40;;;5.90;;
11398;SDS011;5755;48.116;11.608;2022-09-25T11:47:56;7.38;;;6.68;;
11398;SDS011;5755;48.116;11.608;2022-09-25T11:50:31;7.88;;;7.18;;
11398;SDS011;5755;48.116;11.608;2022-09-25T11:53:06;6.95;;;6.25;;
11398;SDS011;5755;48.116;11.608;2022-09-25T11:55:47;6.72;;;6.13;;
11398;SDS011;5755;48.116;11.608;2022-09-25T11:58:35;7.20;;;5.97;;
11398;SDS011;5755;48.116;11.608;2022-09-25T12:01:28;5.80;;;5.15;;
11398;SDS011;5755;48.116;11.608;2022-09-25T12:04:13;6.38;;;5.78;;
11398;SDS011;5755;48.116;11.608;2022-09-25T12:06:58;5.72;;;5.22;;
11398;SDS011;5755;48.116;11.608;2022-09-25T12:09:43;6.97;;;6.28;;
11398;SDS011;5755;48.116;11.608;2022-09-25T12:18:37;7.38;;;6.72;;
11398;SDS011;5755;48.116;11.608;2022-09-25T12:21:15;7.50;;;6.50;;
11398;SDS011;5755;48.116;11.608;2022-09-25T12:24:02;6.85;;;6.25;;
11398;SDS011;5755;48.116;11.608;2022-09-25T12:26:39;6.93;;;6.22;;
11398;SDS011;5755;48.116;11.608;2022-09-25T12:29:22;6.80;;;6.20;;
11398;SDS011;5755;48.116;11.608;2022-09-25T12:32:01;6.70;;;6.07;;
11398;SDS011;5755;48.116;11.608;2022-09-25T12:34:42;9.05;;;6.43;;
11398;SDS011;5755;48.116;11.608;2022-09-25T12:37:27;7.55;;;5.57;;
11398;SDS011;5755;48.116;11.608;2022-09-25T12:40:10;7.88;;;7.07;;
11398;SDS011;5755;48.116;11.608;2022-09-25T12:42:58;7.25;;;6.55;;
11398;SDS011;5755;48.116;11.608;2022-09-25T12:48:41;7.75;;;7.05;;
11398;SDS011;5755;48.116;11.608;2022-09-25T12:51:15;8.35;;;7.45;;
11398;SDS011;5755;48.116;11.608;2022-09-25T12:53:49;9.55;;;8.57;;
11398;SDS011;5755;48.116;11.608;2022-09-25T12:56:19;9.00;;;8.02;;
11398;SDS011;5755;48.116;11.608;2022-09-25T12:59:02;8.75;;;7.45;;
11398;SDS011;5755;48.116;11.608;2022-09-25T13:01:36;8.80;;;7.22;;
11398;SDS011;5755;48.116;11.608;2022-09-25T13:04:22;8.70;;;7.90;;
11398;SDS011;5755;48.116;11.608;2022-09-25T13:07:02;8.90;;;7.80;;
11398;SDS011;5755;48.116;11.608;2022-09-25T13:09:43;8.50;;;7.63;;
11398;SDS011;5755;48.116;11.608;2022-09-25T13:12:14;8.50;;;7.60;;
11398;SDS011;5755;48.116;11.608;2022-09-25T13:14:55;7.93;;;7.07;;
11398;SDS011;5755;48.116;11.608;2022-09-25T13:17:36;7.70;;;7.00;;
11398;SDS011;5755;48.116;11.608;2022-09-25T13:23:26;8.13;;;6.93;;
11398;SDS011;5755;48.116;11.608;2022-09-25T13:25:59;8.02;;;7.20;;
11398;SDS011;5755;48.116;11.608;2022-09-25T13:28:35;9.48;;;8.50;;
11398;SDS011;5755;48.116;11.608;2022-09-25T13:31:07;8.80;;;7.90;;
11398;SDS011;5755;48.116;11.608;2022-09-25T13:33:40;8.95;;;7.82;;
11398;SDS011;5755;48.116;11.608;2022-09-25T13:36:11;10.60;;;7.72;;
11398;SDS011;5755;48.116;11.608;2022-09-25T13:38:56;9.23;;;8.13;;
11398;SDS011;5755;48.116;11.608;2022-09-25T13:41:49;8.73;;;7.63;;
11398;SDS011;5755;48.116;11.608;2022-09-25T13:50:26;9.45;;;8.45;;
11398;SDS011;5755;48.116;11.608;2022-09-25T14:01:42;10.85;;;9.38;;
11398;SDS011;5755;48.116;11.608;2022-09-25T14:06:55;10.10;;;9.10;;
11398;SDS011;5755;48.116;11.608;2022-09-25T14:09:36;11.95;;;10.02;;
11398;SDS011;5755;48.116;11.608;2022-09-25T14:15:07;11.07;;;9.45;;
11398;SDS011;5755;48.116;11.608;2022-09-25T14:17:55;10.88;;;9.75;;
11398;SDS011;5755;48.116;11.608;2022-09-25T14:20:28;10.95;;;9.43;;
11398;SDS011;5755;48.116;11.608;2022-09-25T14:23:01;11.55;;;9.68;;
11398;SDS011;5755;48.116;11.608;2022-09-25T14:25:42;12.38;;;9.40;;
11398;SDS011;5755;48.116;11.608;2022-09-25T14:31:32;11.32;;;9.43;;
11398;SDS011;5755;48.116;11.608;2022-09-25T14:37:20;10.25;;;9.15;;
11398;SDS011;5755;48.116;11.608;2022-09-25T14:40:04;10.77;;;9.65;;
11398;SDS011;5755;48.116;11.608;2022-09-25T14:42:43;11.07;;;9.95;;
11398;SDS011;5755;48.116;11.608;2022-09-25T14:45:31;13.95;;;9.75;;
11398;SDS011;5755;48.116;11.608;2022-09-25T14:48:09;10.30;;;9.25;;
11398;SDS011;5755;48.116;11.608;2022-09-25T14:50:42;10.95;;;9.60;;
11398;SDS011;5755;48.116;11.608;2022-09-25T14:53:26;9.85;;;8.85;;
11398;SDS011;5755;48.116;11.608;2022-09-25T14:55:57;10.52;;;9.43;;
11398;SDS011;5755;48.116;11.608;2022-09-25T14:58:27;10.52;;;9.43;;
11398;SDS011;5755;48.116;11.608;2022-09-25T15:00:59;11.13;;;9.50;;
11398;SDS011;5755;48.116;11.608;2022-09-25T15:03:43;10.20;;;9.13;;
11398;SDS011;5755;48.116;11.608;2022-09-25T15:06:25;11.15;;;9.90;;
11398;SDS011;5755;48.116;11.608;2022-09-25T15:08:53;12.45;;;9.60;;
11398;SDS011;5755;48.116;11.608;2022-09-25T15:11:22;11.45;;;9.55;;
11398;SDS011;5755;48.116;11.608;2022-09-25T15:14:07;13.18;;;9.77;;
11398;SDS011;5755;48.116;11.608;2022-09-25T15:16:38;11.05;;;9.95;;
11398;SDS011;5755;48.116;11.608;2022-09-25T15:19:31;11.27;;;9.93;;
11398;SDS011;5755;48.116;11.608;2022-09-25T15:22:00;10.80;;;9.65;;
11398;SDS011;5755;48.116;11.608;2022-09-25T15:24:33;10.52;;;9.45;;
11398;SDS011;5755;48.116;11.608;2022-09-25T15:27:18;11.68;;;9.98;;
11398;SDS011;5755;48.116;11.608;2022-09-25T15:29:48;11.43;;;10.18;;
11398;SDS011;5755;48.116;11.608;2022-09-25T15:32:21;13.32;;;10.25;;
11398;SDS011;5755;48.116;11.608;2022-09-25T15:37:43;11.20;;;10.00;;
11398;SDS011;5755;48.116;11.608;2022-09-25T15:40:22;11.25;;;10.02;;
11398;SDS011;5755;48.116;11.608;2022-09-25T15:42:55;10.85;;;9.75;;
11398;SDS011;5755;48.116;11.608;2022-09-25T15:45:35;12.02;;;10.82;;
11398;SDS011;5755;48.116;11.608;2022-09-25T15:48:17;10.77;;;9.68;;
11398;SDS011;5755;48.116;11.608;2022-09-25T15:50:48;11.32;;;10.15;;
11398;SDS011;5755;48.116;11.608;2022-09-25T15:53:21;12.18;;;10.95;;
11398;SDS011;5755;48.116;11.608;2022-09-25T15:56:12;12.48;;;11.27;;
11398;SDS011;5755;48.116;11.608;2022-09-25T15:59:02;13.68;;;12.38;;
11398;SDS011;5755;48.116;11.608;2022-09-25T16:04:40;13.60;;;12.20;;
11398;SDS011;5755;48.116;11.608;2022-09-25T16:07:23;12.90;;;11.55;;
11398;SDS011;5755;48.116;11.608;2022-09-25T16:10:02;12.90;;;11.57;;
11398;SDS011;5755;48.116;11.608;2022-09-25T16:12:31;13.57;;;12.18;;
11398;SDS011;5755;48.116;11.608;2022-09-25T16:21:21;14.88;;;13.07;;
11398;SDS011;5755;48.116;11.608;2022-09-25T16:23:53;14.88;;;13.30;;
11398;SDS011;5755;48.116;11.608;2022-09-25T16:26:26;15.68;;;12.48;;
11398;SDS011;5755;48.116;11.608;2022-09-25T16:29:13;13.27;;;11.50;;
11398;SDS011;5755;48.116;11.608;2022-09-25T16:31:48;13.55;;;12.10;;
11398;SDS011;5755;48.116;11.608;2022-09-25T16:34:22;14.43;;;12.65;;
11398;SDS011;5755;48.116;11.608;2022-09-25T16:36:53;12.85;;;11.48;;
11398;SDS011;5755;48.116;11.608;2022-09-25T16:39:28;14.40;;;12.90;;
11398;SDS011;5755;48.116;11.608;2022-09-25T16:42:21;13.63;;;12.07;;
11398;SDS011;5755;48.116;11.608;2022-09-25T16:45:01;16.38;;;12.68;;
11398;SDS011;5755;48.116;11.608;2022-09-25T16:47:34;18.50;;;16.58;;
11398;SDS011;5755;48.116;11.608;2022-09-25T16:50:07;46.17;;;38.20;;
11398;SDS011;5755;48.116;11.608;2022-09-25T16:55:25;64.20;;;56.90;;
11398;SDS011;5755;48.116;11.608;2022-09-25T16:57:55;35.75;;;31.52;;
11398;SDS011;5755;48.116;11.608;2022-09-25T17:00:23;23.73;;;19.73;;
11398;SDS011;5755;48.116;11.608;2022-09-25T17:02:50;61.25;;;54.03;;
11398;SDS011;5755;48.116;11.608;2022-09-25T17:05:18;46.85;;;41.60;;
11398;SDS011;5755;48.116;11.608;2022-09-25T17:07:47;15.77;;;13.63;;
11398;SDS011;5755;48.116;11.608;2022-09-25T17:10:19;16.38;;;13.98;;
11398;SDS011;5755;48.116;11.608;2022-09-25T17:12:47;15.95;;;13.60;;
11398;SDS011;5755;48.116;11.608;2022-09-25T17:15:16;17.17;;;13.27;;
11398;SDS011;5755;48.116;11.608;2022-09-25T17:17:47;23.10;;;18.55;;
11398;SDS011;5755;48.116;11.608;2022-09-25T17:20:19;15.27;;;13.65;;
11398;SDS011;5755;48.116;11.608;2022-09-25T17:22:50;13.57;;;12.18;;
11398;SDS011;5755;48.116;11.608;2022-09-25T17:25:19;13.73;;;12.32;;
11398;SDS011;5755;48.116;11.608;2022-09-25T17:27:49;14.77;;;12.88;;
11398;SDS011;5755;48.116;11.608;2022-09-25T17:30:16;17.45;;;13.70;;
11398;SDS011;5755;48.116;11.608;2022-09-25T17:32:43;15.98;;;13.32;;
11398;SDS011;5755;48.116;11.608;2022-09-25T17:38:03;14.40;;;12.63;;
11398;SDS011;5755;48.116;11.608;2022-09-25T17:40:31;13.48;;;12.07;;
11398;SDS011;5755;48.116;11.608;2022-09-25T17:42:58;12.85;;;11.55;;
11398;SDS011;5755;48.116;11.608;2022-09-25T17:45:28;14.05;;;12.07;;
11398;SDS011;5755;48.116;11.608;2022-09-25T17:47:58;13.98;;;12.48;;
11398;SDS011;5755;48.116;11.608;2022-09-25T17:50:26;14.30;;;12.20;;
11398;SDS011;5755;48.116;11.608;2022-09-25T17:53:01;14.20;;;12.70;;
11398;SDS011;5755;48.116;11.608;2022-09-25T17:55:32;13.85;;;11.93;;
11398;SDS011;5755;48.116;11.608;2022-09-25T17:57:59;13.15;;;11.52;;
11398;SDS011;5755;48.116;11.608;2022-09-25T18:00:26;15.07;;;12.35;;
11398;SDS011;5755;48.116;11.608;2022-09-25T18:02:52;15.75;;;13.15;;
11398;SDS011;5755;48.116;11.608;2022-09-25T18:05:20;13.32;;;11.93;;
11398;SDS011;5755;48.116;11.608;2022-09-25T18:07:48;14.35;;;11.63;;
11398;SDS011;5755;48.116;11.608;2022-09-25T18:10:15;12.65;;;11.35;;
11398;SDS011;5755;48.116;11.608;2022-09-25T18:12:44;13.57;;;11.85;;
11398;SDS011;5755;48.116;11.608;2022-09-25T18:15:11;13.73;;;12.40;;
11398;SDS011;5755;48.116;11.608;2022-09-25T18:17:38;13.77;;;12.38;;
11398;SDS011;5755;48.116;11.608;2022-09-25T18:20:25;12.63;;;11.35;;
11398;SDS011;5755;48.116;11.608;2022-09-25T18:23:12;12.88;;;11.50;;
11398;SDS011;5755;48.116;11.608;2022-09-25T18:25:39;13.25;;;11.80;;
11398;SDS011;5755;48.116;11.608;2022-09-25T18:28:14;15.20;;;11.98;;
11398;SDS011;5755;48.116;11.608;2022-09-25T18:30:43;12.88;;;11.57;;
11398;SDS011;5755;48.116;11.608;2022-09-25T18:33:10;13.80;;;12.25;;
11398;SDS011;5755;48.116;11.608;2022-09-25T18:35:37;14.20;;;12.20;;
11398;SDS011;5755;48.116;11.608;2022-09-25T18:38:05;13.55;;;12.25;;
11398;SDS011;5755;48.116;11.608;2022-09-25T18:40:32;14.20;;;12.38;;
11398;SDS011;5755;48.116;11.608;2022-09-25T18:42:58;13.93;;;12.50;;
11398;SDS011;5755;48.116;11.608;2022-09-25T18:45:27;14.30;;;12.18;;
11398;SDS011;5755;48.116;11.608;2022-09-25T18:47:54;13.50;;;12.10;;
11398;SDS011;5755;48.116;11.608;2022-09-25T18:50:22;13.50;;;12.15;;
11398;SDS011;5755;48.116;11.608;2022-09-25T18:52:55;13.63;;;11.52;;
11398;SDS011;5755;48.116;11.608;2022-09-25T18:55:21;13.98;;;11.70;;
11398;SDS011;5755;48.116;11.608;2022-09-25T18:57:48;12.77;;;11.43;;
11398;SDS011;5755;48.116;11.608;2022-09-25T19:00:16;14.55;;;11.73;;
11398;SDS011;5755;48.116;11.608;2022-09-25T19:02:45;12.68;;;11.38;;
11398;SDS011;5755;48.116;11.608;2022-09-25T19:05:14;13.02;;;11.60;;
11398;SDS011;5755;48.116;11.608;2022-09-25T19:07:41;12.52;;;11.23;;
11398;SDS011;5755;48.116;11.608;2022-09-25T19:10:08;11.82;;;10.63;;
11398;SDS011;5755;48.116;11.608;2022-09-25T19:12:36;12.50;;;11.20;;
11398;SDS011;5755;48.116;11.608;2022-09-25T19:15:04;12.57;;;10.57;;